Terminal Aerodrome Forecast
Issued by NWS

Home | Current Version | Previous Version | Text Only | Print | Product List | Glossary On
Versions: 1 2 3 4 5 6 7 8 9 10 11 12 13 14
000
FTUS46 KPDT 261730
TAFYKM
TAF
KYKM 261730Z 2618/2718 29011KT P6SM -SHRA OVC050
     FM262000 29014G20KT P6SM BKN060
     FM262300 29018G26KT P6SM SCT060
     FM270500 29011KT P6SM SCT090=

USA.gov is the U.S. government's official web portal to all federal, state and local government web resources and services.